createdAt,value
2018-07-10T00:00:51.381Z,0.00
2018-07-10T00:01:51.404Z,0.00
2018-07-10T00:02:51.429Z,0.00
2018-07-10T00:03:51.443Z,0.00
2018-07-10T00:04:51.473Z,0.00
2018-07-10T00:05:51.489Z,0.00
2018-07-10T00:06:51.517Z,0.00
2018-07-10T00:07:51.540Z,0.00
2018-07-10T00:08:51.559Z,0.00
2018-07-10T00:09:51.582Z,0.00
2018-07-10T00:10:51.604Z,0.00
2018-07-10T00:11:51.631Z,0.00
2018-07-10T00:12:51.657Z,0.00
2018-07-10T00:13:51.674Z,0.00
2018-07-10T00:14:51.704Z,0.00
2018-07-10T00:15:51.724Z,0.00
2018-07-10T00:16:51.738Z,0.00
2018-07-10T00:17:51.770Z,0.00
2018-07-10T00:18:51.788Z,0.00
2018-07-10T00:19:51.814Z,0.00
2018-07-10T00:20:51.835Z,0.00
2018-07-10T00:21:51.856Z,0.00
2018-07-10T00:22:51.878Z,0.00
2018-07-10T00:23:51.906Z,0.00
2018-07-10T00:24:51.930Z,0.00
2018-07-10T00:25:51.952Z,0.00
2018-07-10T00:26:51.966Z,0.00
2018-07-10T00:27:51.998Z,0.00
2018-07-10T00:28:52.020Z,0.00
2018-07-10T00:29:52.036Z,0.00
2018-07-10T00:30:52.068Z,0.00
2018-07-10T00:31:52.080Z,0.00
2018-07-10T00:32:52.112Z,0.00
2018-07-10T00:33:52.133Z,0.00
2018-07-10T00:34:52.156Z,0.00
2018-07-10T00:35:52.174Z,0.00
2018-07-10T00:36:52.204Z,0.00
2018-07-10T00:37:52.218Z,0.00
2018-07-10T00:38:52.244Z,0.00
2018-07-10T00:39:52.270Z,0.00
2018-07-10T00:40:52.300Z,0.00
2018-07-10T00:41:52.309Z,0.00
2018-07-10T00:42:52.336Z,0.00
2018-07-10T00:43:52.362Z,0.00
2018-07-10T00:44:52.386Z,0.00
2018-07-10T00:45:52.406Z,0.00
2018-07-10T00:46:52.426Z,0.00
2018-07-10T00:47:52.451Z,0.00
2018-07-10T00:48:52.474Z,0.00
2018-07-10T00:49:52.503Z,0.00
2018-07-10T00:50:52.520Z,0.00
2018-07-10T00:51:52.544Z,0.00
2018-07-10T00:52:52.559Z,0.00
2018-07-10T00:53:52.594Z,0.00
2018-07-10T00:54:52.608Z,0.00
2018-07-10T00:55:52.630Z,0.00
2018-07-10T00:56:52.650Z,0.00
2018-07-10T00:57:52.680Z,0.00
2018-07-10T00:58:52.698Z,0.00
2018-07-10T00:59:52.725Z,0.00
2018-07-10T01:00:52.742Z,0.00
2018-07-10T01:01:52.762Z,0.00
2018-07-10T01:02:52.791Z,0.00
2018-07-10T01:03:52.807Z,0.00
2018-07-10T01:04:52.830Z,0.00
2018-07-10T01:05:52.856Z,0.00
2018-07-10T01:06:52.876Z,0.00
2018-07-10T01:07:52.900Z,0.00
2018-07-10T01:08:52.924Z,0.00
2018-07-10T01:09:52.940Z,0.00
2018-07-10T01:10:52.968Z,0.00
2018-07-10T01:11:52.988Z,0.00
2018-07-10T01:12:53.020Z,0.00
2018-07-10T01:13:53.040Z,0.00
2018-07-10T01:14:53.056Z,0.00
2018-07-10T01:15:53.081Z,0.00
2018-07-10T01:16:53.104Z,0.00
2018-07-10T01:17:53.125Z,0.00
2018-07-10T01:18:53.156Z,0.00
2018-07-10T01:19:53.172Z,0.00
2018-07-10T01:20:53.192Z,0.00
2018-07-10T01:21:53.209Z,0.00
2018-07-10T01:22:53.237Z,0.00
2018-07-10T01:23:53.256Z,0.00
2018-07-10T01:24:53.279Z,0.00
2018-07-10T01:25:53.298Z,0.00
2018-07-10T01:26:53.322Z,0.00
2018-07-10T01:27:53.352Z,0.00
2018-07-10T01:28:53.364Z,0.00
2018-07-10T01:29:53.384Z,0.00
2018-07-10T01:30:53.411Z,0.00
2018-07-10T01:31:53.426Z,0.00
2018-07-10T01:32:53.450Z,0.00
2018-07-10T01:33:53.468Z,0.00
2018-07-10T01:34:53.508Z,0.00
2018-07-10T01:35:53.514Z,0.00
2018-07-10T01:36:53.540Z,0.00
2018-07-10T01:37:53.563Z,0.00
2018-07-10T01:38:53.582Z,0.00
2018-07-10T01:39:53.607Z,0.00
2018-07-10T01:40:53.624Z,0.00
2018-07-10T01:41:53.642Z,0.00
2018-07-10T01:42:53.672Z,0.00
2018-07-10T01:43:53.688Z,0.00
2018-07-10T01:44:53.721Z,0.00
2018-07-10T01:45:53.737Z,0.00
2018-07-10T01:46:53.760Z,0.00
2018-07-10T01:47:53.781Z,0.00
2018-07-10T01:48:53.805Z,0.00
2018-07-10T01:49:53.826Z,0.00
2018-07-10T01:50:53.844Z,0.00
2018-07-10T01:51:53.873Z,0.00
2018-07-10T01:52:53.888Z,0.00
2018-07-10T01:53:53.906Z,0.00
2018-07-10T01:54:53.930Z,0.00
2018-07-10T01:55:53.954Z,0.00
2018-07-10T01:56:53.978Z,0.00
2018-07-10T01:57:53.998Z,0.00
2018-07-10T01:58:54.018Z,0.00
2018-07-10T01:59:54.044Z,0.00
2018-07-10T02:00:54.058Z,0.00
2018-07-10T02:01:54.087Z,0.00
2018-07-10T02:02:54.113Z,0.00
2018-07-10T02:03:54.131Z,0.00
2018-07-10T02:04:54.147Z,0.00
2018-07-10T02:05:54.174Z,0.00
2018-07-10T02:06:54.194Z,0.00
2018-07-10T02:07:54.216Z,0.00
2018-07-10T02:08:54.236Z,0.00
2018-07-10T02:09:54.259Z,0.00
2018-07-10T02:10:54.286Z,0.00
2018-07-10T02:11:54.300Z,0.00
2018-07-10T02:12:54.323Z,0.00
2018-07-10T02:13:54.390Z,4.00
2018-07-10T02:14:54.367Z,0.00
2018-07-10T02:15:54.388Z,0.00
2018-07-10T02:16:54.408Z,0.00
2018-07-10T02:17:54.432Z,4.00
2018-07-10T02:18:54.455Z,4.00
2018-07-10T02:19:54.482Z,4.00
2018-07-10T02:20:54.496Z,4.00
2018-07-10T02:21:54.521Z,4.00
2018-07-10T02:22:54.546Z,4.00
2018-07-10T02:23:54.565Z,4.00
2018-07-10T02:24:54.586Z,4.00
2018-07-10T02:25:54.604Z,4.00
2018-07-10T02:26:54.623Z,4.00
2018-07-10T02:27:54.644Z,4.00
2018-07-10T02:28:54.669Z,4.00
2018-07-10T02:29:54.690Z,4.00
2018-07-10T02:30:54.714Z,4.00
2018-07-10T02:31:54.734Z,4.00
2018-07-10T02:32:54.753Z,4.00
2018-07-10T02:33:54.774Z,8.00
2018-07-10T02:34:54.797Z,4.00
2018-07-10T02:35:54.820Z,4.00
2018-07-10T02:36:54.842Z,8.00
2018-07-10T02:37:54.864Z,8.00
2018-07-10T02:38:54.889Z,4.00
2018-07-10T02:39:54.949Z,8.00
2018-07-10T02:40:54.929Z,8.00
2018-07-10T02:41:54.956Z,12.00
2018-07-10T02:42:54.982Z,12.00
2018-07-10T02:43:54.994Z,16.00
2018-07-10T02:44:55.016Z,16.00
2018-07-10T02:45:55.033Z,16.00
2018-07-10T02:46:55.060Z,16.00
2018-07-10T02:47:55.077Z,16.00
2018-07-10T02:48:55.104Z,24.00
2018-07-10T02:49:55.122Z,24.00
2018-07-10T02:50:55.144Z,28.00
2018-07-10T02:51:55.172Z,32.00
2018-07-10T02:52:55.184Z,40.00
2018-07-10T02:53:55.211Z,44.00
2018-07-10T02:54:55.226Z,48.00
2018-07-10T02:55:55.254Z,48.00
2018-07-10T02:56:55.277Z,52.00
2018-07-10T02:57:55.292Z,52.00
2018-07-10T02:58:55.317Z,52.00
2018-07-10T02:59:55.335Z,52.00
2018-07-10T03:00:55.364Z,52.00
2018-07-10T03:01:55.382Z,52.00
2018-07-10T03:02:55.402Z,52.00
2018-07-10T03:03:55.423Z,56.00
2018-07-10T03:04:55.445Z,56.00
2018-07-10T03:05:55.468Z,60.00
2018-07-10T03:06:55.492Z,64.00
2018-07-10T03:07:55.514Z,68.00
2018-07-10T03:08:55.533Z,68.00
2018-07-10T03:09:55.553Z,68.00
2018-07-10T03:10:55.574Z,60.00
2018-07-10T03:11:55.598Z,72.00
2018-07-10T03:12:55.622Z,80.00
2018-07-10T03:13:55.644Z,84.00
2018-07-10T03:14:55.664Z,96.00
2018-07-10T03:15:55.692Z,108.00
2018-07-10T03:16:55.712Z,116.00
2018-07-10T03:17:55.726Z,120.00
2018-07-10T03:18:55.749Z,120.00
2018-07-10T03:19:55.774Z,140.00
2018-07-10T03:20:55.799Z,160.00
2018-07-10T03:21:55.814Z,164.00
2018-07-10T03:22:55.832Z,196.00
2018-07-10T03:23:55.859Z,228.00
2018-07-10T03:24:55.886Z,240.00
2018-07-10T03:25:55.899Z,228.00
2018-07-10T03:26:55.924Z,208.00
2018-07-10T03:27:55.946Z,196.00
2018-07-10T03:28:55.968Z,200.00
2018-07-10T03:29:55.986Z,188.00
2018-07-10T03:30:56.012Z,224.00
2018-07-10T03:31:56.030Z,244.00
2018-07-10T03:32:56.050Z,256.00
2018-07-10T03:33:56.077Z,284.00
2018-07-10T03:34:56.097Z,268.00
2018-07-10T03:35:56.120Z,280.00
2018-07-10T03:36:56.144Z,264.00
2018-07-10T03:37:56.162Z,248.00
2018-07-10T03:38:56.189Z,260.00
2018-07-10T03:39:56.206Z,236.00
2018-07-10T03:40:56.228Z,252.00
2018-07-10T03:41:56.253Z,252.00
2018-07-10T03:42:56.280Z,252.00
2018-07-10T03:43:56.297Z,292.00
2018-07-10T03:44:56.316Z,320.00
2018-07-10T03:45:56.345Z,316.00
2018-07-10T03:46:56.359Z,352.00
2018-07-10T03:47:56.382Z,376.00
2018-07-10T03:48:56.409Z,424.00
2018-07-10T03:49:56.435Z,424.00
2018-07-10T03:50:56.452Z,452.00
2018-07-10T03:51:56.470Z,500.00
2018-07-10T03:52:56.495Z,516.00
2018-07-10T03:53:56.513Z,520.00
2018-07-10T03:54:56.536Z,504.00
2018-07-10T03:55:56.561Z,532.00
2018-07-10T03:56:56.578Z,504.00
2018-07-10T03:57:56.601Z,496.00
2018-07-10T03:58:56.627Z,620.00
2018-07-10T03:59:56.645Z,660.00
2018-07-10T04:00:56.671Z,644.00
2018-07-10T04:01:56.690Z,612.00
2018-07-10T04:02:56.721Z,632.00
2018-07-10T04:03:56.733Z,596.00
2018-07-10T04:04:56.761Z,532.00
2018-07-10T04:05:56.781Z,452.00
2018-07-10T04:06:56.801Z,492.00
2018-07-10T04:07:56.825Z,652.00
2018-07-10T04:08:56.877Z,852.00
2018-07-10T04:09:56.872Z,816.00
2018-07-10T04:10:56.903Z,820.00
2018-07-10T04:11:56.916Z,812.00
2018-07-10T04:12:56.933Z,820.00
2018-07-10T04:13:56.967Z,880.00
2018-07-10T04:14:56.985Z,896.00
2018-07-10T04:15:57.001Z,916.00
2018-07-10T04:16:57.024Z,1072.00
2018-07-10T04:17:57.140Z,948.00
2018-07-10T04:18:57.069Z,896.00
2018-07-10T04:19:57.099Z,924.00
2018-07-10T04:20:57.115Z,1040.00
2018-07-10T04:21:57.141Z,1144.00
2018-07-10T04:22:57.165Z,1248.00
2018-07-10T04:23:57.183Z,1296.00
2018-07-10T04:24:57.213Z,1160.00
2018-07-10T04:25:57.229Z,1392.00
2018-07-10T04:26:57.250Z,1748.00
2018-07-10T04:27:57.271Z,1844.00
2018-07-10T04:28:57.354Z,1912.00
2018-07-10T04:29:57.319Z,2076.00
2018-07-10T04:30:57.344Z,1968.00
2018-07-10T04:31:57.366Z,1944.00
2018-07-10T04:32:57.387Z,1944.00
2018-07-10T04:33:57.412Z,1996.00
2018-07-10T04:34:57.430Z,2136.00
2018-07-10T04:35:57.454Z,2112.00
2018-07-10T04:36:57.487Z,2288.00
2018-07-10T04:37:57.505Z,2448.00
2018-07-10T04:38:57.525Z,2748.00
2018-07-10T04:39:57.554Z,2844.00
2018-07-10T04:40:57.569Z,3340.00
2018-07-10T04:41:57.593Z,3616.00
2018-07-10T04:42:57.621Z,3800.00
2018-07-10T04:43:57.638Z,3864.00
2018-07-10T04:44:57.663Z,3728.00
2018-07-10T04:45:57.687Z,3780.00
2018-07-10T04:46:57.707Z,3724.00
2018-07-10T04:47:57.727Z,3768.00
2018-07-10T04:48:57.815Z,3512.00
2018-07-10T04:49:57.783Z,3220.00
2018-07-10T04:50:57.806Z,3172.00
2018-07-10T04:51:57.824Z,3404.00
2018-07-10T04:52:57.843Z,3464.00
2018-07-10T04:53:57.868Z,3456.00
2018-07-10T04:54:57.897Z,3608.00
2018-07-10T04:55:57.918Z,3884.00
2018-07-10T04:56:57.938Z,3960.00
2018-07-10T04:57:57.969Z,3948.00
2018-07-10T04:58:57.981Z,3776.00
2018-07-10T04:59:58.013Z,3768.00
2018-07-10T05:00:58.034Z,3732.00
2018-07-10T05:01:58.057Z,3472.00
2018-07-10T05:02:58.081Z,3524.00
2018-07-10T05:03:58.105Z,3616.00
2018-07-10T05:04:58.129Z,3636.00
2018-07-10T05:05:58.244Z,3996.00
2018-07-10T05:06:58.174Z,4300.00
2018-07-10T05:07:58.196Z,4020.00
2018-07-10T05:08:58.219Z,3892.00
2018-07-10T05:09:58.241Z,3688.00
2018-07-10T05:10:58.263Z,3728.00
2018-07-10T05:11:58.297Z,4088.00
2018-07-10T05:12:58.318Z,4172.00
2018-07-10T05:13:58.331Z,3840.00
2018-07-10T05:14:58.363Z,3376.00
2018-07-10T05:15:58.377Z,3076.00
2018-07-10T05:16:58.409Z,2652.00
2018-07-10T05:17:58.427Z,2428.00
2018-07-10T05:18:58.482Z,2240.00
2018-07-10T05:19:58.480Z,1996.00
2018-07-10T05:20:58.503Z,1892.00
2018-07-10T05:21:58.524Z,1768.00
2018-07-10T05:22:58.552Z,1664.00
2018-07-10T05:23:58.570Z,1632.00
2018-07-10T05:24:58.588Z,1708.00
2018-07-10T05:25:58.617Z,1732.00
2018-07-10T05:26:58.636Z,1668.00
2018-07-10T05:27:58.663Z,1684.00
2018-07-10T05:28:58.804Z,1796.00
2018-07-10T05:29:58.707Z,1956.00
2018-07-10T05:30:58.737Z,2188.00
2018-07-10T05:31:58.756Z,2500.00
2018-07-10T05:32:58.776Z,2828.00
2018-07-10T05:33:58.797Z,3104.00
2018-07-10T05:34:58.826Z,3448.00
2018-07-10T05:35:58.846Z,4056.00
2018-07-10T05:36:58.875Z,4556.00
2018-07-10T05:37:58.896Z,4888.00
2018-07-10T05:38:58.916Z,5056.00
2018-07-10T05:39:58.939Z,5036.00
2018-07-10T05:40:58.962Z,5140.00
2018-07-10T05:41:58.990Z,5064.00
2018-07-10T05:42:59.018Z,5060.00
2018-07-10T05:43:59.033Z,5044.00
2018-07-10T05:44:59.063Z,4920.00
2018-07-10T05:45:59.079Z,4748.00
2018-07-10T05:46:59.102Z,4508.00
2018-07-10T05:47:59.135Z,4304.00
2018-07-10T05:48:59.154Z,4280.00
2018-07-10T05:49:59.177Z,4124.00
2018-07-10T05:50:59.202Z,3944.00
2018-07-10T05:51:59.228Z,3920.00
2018-07-10T05:52:59.247Z,3776.00
2018-07-10T05:53:59.275Z,3524.00
2018-07-10T05:54:59.299Z,3324.00
2018-07-10T05:55:59.315Z,3080.00
2018-07-10T05:56:59.343Z,2796.00
2018-07-10T05:57:59.364Z,2568.00
2018-07-10T05:58:59.385Z,2524.00
2018-07-10T05:59:59.414Z,2712.00
2018-07-10T06:00:59.440Z,3184.00
2018-07-10T06:01:59.458Z,3516.00
2018-07-10T06:02:59.482Z,3980.00
2018-07-10T06:03:59.507Z,4660.00
2018-07-10T06:04:59.530Z,5044.00
2018-07-10T06:05:59.550Z,5140.00
2018-07-10T06:06:59.574Z,5352.00
2018-07-10T06:07:59.603Z,5144.00
2018-07-10T06:08:59.626Z,4564.00
2018-07-10T06:09:59.648Z,4100.00
2018-07-10T06:10:59.670Z,3360.00
2018-07-10T06:11:59.697Z,2744.00
2018-07-10T06:12:59.722Z,2472.00
2018-07-10T06:13:59.767Z,2304.00
2018-07-10T06:14:59.771Z,2084.00
2018-07-10T06:15:59.793Z,1856.00
2018-07-10T06:16:59.818Z,1536.00
2018-07-10T06:17:59.837Z,1396.00
2018-07-10T06:18:59.860Z,1360.00
2018-07-10T06:19:59.894Z,1524.00
2018-07-10T06:20:59.916Z,1696.00
2018-07-10T06:21:59.931Z,1948.00
2018-07-10T06:22:59.959Z,2240.00
2018-07-10T06:23:59.980Z,2624.00
2018-07-10T06:25:00.005Z,3048.00
2018-07-10T06:26:00.033Z,3392.00
2018-07-10T06:27:00.060Z,3632.00
2018-07-10T06:28:00.079Z,3836.00
2018-07-10T06:29:00.099Z,4016.00
2018-07-10T06:30:00.132Z,4208.00
2018-07-10T06:31:00.141Z,4476.00
2018-07-10T06:32:00.172Z,4740.00
2018-07-10T06:33:00.194Z,5000.00
2018-07-10T06:34:00.216Z,5132.00
2018-07-10T06:35:00.236Z,5036.00
2018-07-10T06:36:00.267Z,4752.00
2018-07-10T06:37:00.285Z,4408.00
2018-07-10T06:38:00.310Z,4028.00
2018-07-10T06:39:00.329Z,3740.00
2018-07-10T06:40:00.354Z,3768.00
2018-07-10T06:41:00.379Z,4032.00
2018-07-10T06:42:00.443Z,4488.00
2018-07-10T06:43:00.424Z,4428.00
2018-07-10T06:44:00.449Z,4096.00
2018-07-10T06:45:00.474Z,4032.00
2018-07-10T06:46:00.496Z,4188.00
2018-07-10T06:47:00.555Z,4612.00
2018-07-10T06:48:00.548Z,5292.00
2018-07-10T06:49:00.570Z,5972.00
2018-07-10T06:50:00.588Z,6492.00
2018-07-10T06:51:00.614Z,6360.00
2018-07-10T06:52:00.639Z,6248.00
2018-07-10T06:53:01.053Z,6968.00
2018-07-10T06:54:00.688Z,7572.00
2018-07-10T06:55:00.707Z,7148.00
2018-07-10T06:56:00.735Z,5868.00
2018-07-10T06:57:00.765Z,4884.00
2018-07-10T06:58:00.778Z,4100.00
2018-07-10T06:59:00.804Z,3744.00
2018-07-10T07:00:00.830Z,3812.00
2018-07-10T07:01:00.855Z,4016.00
2018-07-10T07:02:00.875Z,4440.00
2018-07-10T07:03:00.903Z,5128.00
2018-07-10T07:04:00.922Z,5844.00
2018-07-10T07:05:00.946Z,6544.00
2018-07-10T07:06:00.969Z,7280.00
2018-07-10T07:07:00.997Z,7844.00
2018-07-10T07:08:01.073Z,8304.00
2018-07-10T07:09:01.042Z,8568.00
2018-07-10T07:10:01.066Z,8464.00
2018-07-10T07:11:01.092Z,7868.00
2018-07-10T07:12:01.117Z,6824.00
2018-07-10T07:13:01.138Z,5660.00
2018-07-10T07:14:01.167Z,4808.00
2018-07-10T07:15:01.187Z,4120.00
2018-07-10T07:16:01.220Z,3584.00
2018-07-10T07:17:01.233Z,3300.00
2018-07-10T07:18:01.261Z,3232.00
2018-07-10T07:19:01.293Z,3196.00
2018-07-10T07:20:01.310Z,3288.00
2018-07-10T07:21:01.332Z,3480.00
2018-07-10T07:22:01.354Z,3616.00
2018-07-10T07:23:01.380Z,3840.00
2018-07-10T07:24:01.419Z,3948.00
2018-07-10T07:25:01.436Z,4092.00
2018-07-10T07:26:01.454Z,4480.00
2018-07-10T07:27:01.477Z,4940.00
2018-07-10T07:28:01.502Z,5448.00
2018-07-10T07:29:01.524Z,5724.00
2018-07-10T07:30:01.550Z,5996.00
2018-07-10T07:31:01.577Z,6352.00
2018-07-10T07:32:01.594Z,6684.00
2018-07-10T07:33:01.625Z,7108.00
2018-07-10T07:34:01.643Z,7732.00
2018-07-10T07:35:01.722Z,8356.00
2018-07-10T07:36:01.700Z,8620.00
2018-07-10T07:37:01.718Z,8764.00
2018-07-10T07:38:01.738Z,9020.00
2018-07-10T07:39:01.766Z,9152.00
2018-07-10T07:40:01.794Z,9076.00
2018-07-10T07:41:01.823Z,9272.00
2018-07-10T07:42:01.846Z,9432.00
2018-07-10T07:43:01.864Z,9260.00
2018-07-10T07:44:02.019Z,8856.00
2018-07-10T07:45:01.908Z,8788.00
2018-07-10T07:46:01.933Z,9168.00
2018-07-10T07:47:01.956Z,9356.00
2018-07-10T07:48:01.983Z,9388.00
2018-07-10T07:49:02.008Z,9224.00
2018-07-10T07:50:02.047Z,9320.00
2018-07-10T07:51:02.052Z,10088.00
2018-07-10T07:52:02.083Z,10728.00
2018-07-10T07:53:02.111Z,10964.00
2018-07-10T07:54:02.132Z,11384.00
2018-07-10T07:55:02.155Z,11800.00
2018-07-10T07:56:02.180Z,12240.00
2018-07-10T07:57:02.203Z,12320.00
2018-07-10T07:58:02.228Z,12344.00
2018-07-10T07:59:02.254Z,12372.00
2018-07-10T08:00:02.282Z,11980.00
2018-07-10T08:01:02.304Z,12064.00
2018-07-10T08:02:02.329Z,12412.00
2018-07-10T08:03:02.363Z,12636.00
2018-07-10T08:04:02.377Z,12684.00
2018-07-10T08:05:02.407Z,13124.00
2018-07-10T08:06:02.428Z,13520.00
2018-07-10T08:07:02.458Z,13600.00
2018-07-10T08:08:02.481Z,13440.00
2018-07-10T08:09:02.503Z,13508.00
2018-07-10T08:10:02.539Z,13864.00
2018-07-10T08:11:02.561Z,13984.00
2018-07-10T08:12:02.582Z,13608.00
2018-07-10T08:13:02.631Z,12972.00
2018-07-10T08:14:02.636Z,12320.00
2018-07-10T08:15:02.668Z,11584.00
2018-07-10T08:16:02.684Z,11088.00
2018-07-10T08:17:02.713Z,11672.00
2018-07-10T08:18:02.752Z,12464.00
2018-07-10T08:19:02.779Z,13108.00
2018-07-10T08:20:02.788Z,14184.00
2018-07-10T08:21:02.816Z,14264.00
2018-07-10T08:22:02.844Z,14728.00
2018-07-10T08:23:02.863Z,15220.00
2018-07-10T08:24:02.897Z,14928.00
2018-07-10T08:25:02.921Z,13932.00
2018-07-10T08:26:02.939Z,12784.00
2018-07-10T08:27:02.971Z,10968.00
2018-07-10T08:28:02.990Z,9520.00
2018-07-10T08:29:03.019Z,8284.00
2018-07-10T08:30:03.047Z,7140.00
2018-07-10T08:31:03.069Z,6844.00
2018-07-10T08:32:03.096Z,6924.00
2018-07-10T08:33:03.121Z,7352.00
2018-07-10T08:34:03.163Z,7936.00
2018-07-10T08:35:03.183Z,8740.00
2018-07-10T08:36:03.195Z,9712.00
2018-07-10T08:37:03.230Z,10892.00
2018-07-10T08:38:03.249Z,12096.00
2018-07-10T08:39:03.269Z,13072.00
2018-07-10T08:40:03.301Z,13728.00
2018-07-10T08:41:03.329Z,13944.00
2018-07-10T08:42:03.353Z,14008.00
2018-07-10T08:43:03.390Z,13908.00
2018-07-10T08:44:03.399Z,13320.00
2018-07-10T08:45:03.432Z,12888.00
2018-07-10T08:46:03.450Z,13068.00
2018-07-10T08:47:03.482Z,13636.00
2018-07-10T08:48:03.506Z,13904.00
2018-07-10T08:49:03.536Z,14060.00
2018-07-10T08:50:03.560Z,14164.00
2018-07-10T08:51:03.582Z,14188.00
2018-07-10T08:52:03.613Z,14104.00
2018-07-10T08:53:03.641Z,13948.00
2018-07-10T08:54:03.654Z,13816.00
2018-07-10T08:55:03.688Z,13808.00
2018-07-10T08:56:03.719Z,13960.00
2018-07-10T08:57:03.740Z,14508.00
2018-07-10T08:58:03.764Z,15088.00
2018-07-10T08:59:03.787Z,15744.00
2018-07-10T09:00:03.821Z,16324.00
2018-07-10T09:01:03.837Z,16516.00
2018-07-10T09:02:03.870Z,16300.00
2018-07-10T09:03:03.896Z,15964.00
2018-07-10T09:04:03.917Z,15620.00
2018-07-10T09:05:03.947Z,15360.00
2018-07-10T09:06:03.977Z,15136.00
2018-07-10T09:07:03.997Z,15136.00
2018-07-10T09:08:04.036Z,15036.00
2018-07-10T09:09:04.054Z,15096.00
2018-07-10T09:10:04.073Z,15160.00
2018-07-10T09:11:04.111Z,14888.00
2018-07-10T09:12:04.124Z,14708.00
2018-07-10T09:13:04.150Z,14324.00
2018-07-10T09:14:04.177Z,14312.00
2018-07-10T09:15:04.212Z,14516.00
2018-07-10T09:16:04.244Z,14424.00
2018-07-10T09:17:04.274Z,14028.00
2018-07-10T09:18:04.283Z,13576.00
2018-07-10T09:19:04.344Z,13056.00
2018-07-10T09:20:04.337Z,11952.00
2018-07-10T09:21:04.363Z,10012.00
2018-07-10T09:22:04.387Z,8444.00
2018-07-10T09:23:04.423Z,8132.00
2018-07-10T09:24:04.441Z,8952.00
2018-07-10T09:25:04.468Z,8420.00
2018-07-10T09:26:04.494Z,6556.00
2018-07-10T09:27:04.528Z,4760.00
2018-07-10T09:28:04.549Z,4360.00
2018-07-10T09:29:04.573Z,4856.00
2018-07-10T09:30:04.606Z,5644.00
2018-07-10T09:31:04.621Z,6856.00
2018-07-10T09:32:04.655Z,8372.00
2018-07-10T09:33:04.682Z,10076.00
2018-07-10T09:34:04.702Z,12252.00
2018-07-10T09:35:04.725Z,14812.00
2018-07-10T09:36:04.752Z,17408.00
2018-07-10T09:37:04.778Z,18400.00
2018-07-10T09:38:04.806Z,18272.00
2018-07-10T09:39:04.827Z,17164.00
2018-07-10T09:40:04.858Z,16320.00
2018-07-10T09:41:04.882Z,16080.00
2018-07-10T09:42:04.907Z,16192.00
2018-07-10T09:43:04.931Z,16284.00
2018-07-10T09:44:05.091Z,16160.00
2018-07-10T09:45:05.007Z,15424.00
2018-07-10T09:46:05.006Z,14424.00
2018-07-10T09:47:05.042Z,13764.00
2018-07-10T09:48:05.066Z,13592.00
2018-07-10T09:49:05.086Z,13464.00
2018-07-10T09:50:05.116Z,13252.00
2018-07-10T09:51:05.142Z,13152.00
2018-07-10T09:52:05.171Z,12672.00
2018-07-10T09:53:05.188Z,12344.00
2018-07-10T09:54:05.214Z,11704.00
2018-07-10T09:55:05.293Z,10892.00
2018-07-10T09:56:05.273Z,9808.00
2018-07-10T09:57:05.305Z,8912.00
2018-07-10T09:58:05.321Z,8552.00
2018-07-10T09:59:05.348Z,8652.00
2018-07-10T10:00:05.372Z,8696.00
2018-07-10T10:01:05.398Z,9584.00
2018-07-10T10:02:05.422Z,10716.00
2018-07-10T10:03:05.450Z,11868.00
2018-07-10T10:04:05.481Z,12500.00
2018-07-10T10:05:05.543Z,12284.00
2018-07-10T10:06:05.533Z,11280.00
2018-07-10T10:07:05.557Z,10352.00
2018-07-10T10:08:05.578Z,10424.00
2018-07-10T10:09:05.607Z,10976.00
2018-07-10T10:10:05.635Z,9784.00
2018-07-10T10:11:05.657Z,9324.00
2018-07-10T10:12:05.685Z,8676.00
2018-07-10T10:13:05.710Z,8316.00
2018-07-10T10:14:05.735Z,8904.00
2018-07-10T10:15:05.769Z,8908.00
2018-07-10T10:16:05.781Z,8616.00
2018-07-10T10:17:05.815Z,8988.00
2018-07-10T10:18:05.841Z,9884.00
2018-07-10T10:19:05.865Z,9912.00
2018-07-10T10:20:05.895Z,8480.00
2018-07-10T10:21:05.911Z,7292.00
2018-07-10T10:22:05.945Z,6580.00
2018-07-10T10:23:05.974Z,5952.00
2018-07-10T10:24:05.999Z,5932.00
2018-07-10T10:25:06.016Z,6748.00
2018-07-10T10:26:06.043Z,10940.00
2018-07-10T10:27:06.067Z,13436.00
2018-07-10T10:28:06.101Z,15948.00
2018-07-10T10:29:06.127Z,15216.00
2018-07-10T10:30:06.150Z,13772.00
2018-07-10T10:31:06.172Z,13440.00
2018-07-10T10:32:06.197Z,15052.00
2018-07-10T10:33:06.223Z,14488.00
2018-07-10T10:34:06.251Z,13640.00
2018-07-10T10:35:06.280Z,12176.00
2018-07-10T10:36:06.301Z,11140.00
2018-07-10T10:37:06.325Z,10724.00
2018-07-10T10:38:06.356Z,10536.00
2018-07-10T10:39:06.381Z,10528.00
2018-07-10T10:40:06.402Z,11252.00
2018-07-10T10:41:06.433Z,12436.00
2018-07-10T10:42:06.454Z,14924.00
2018-07-10T10:43:06.479Z,14840.00
2018-07-10T10:44:06.504Z,12976.00
2018-07-10T10:45:06.544Z,11884.00
2018-07-10T10:46:06.557Z,11176.00
2018-07-10T10:47:06.590Z,12188.00
2018-07-10T10:48:06.610Z,12656.00
2018-07-10T10:49:06.646Z,14684.00
2018-07-10T10:50:06.664Z,15632.00
2018-07-10T10:51:06.697Z,15040.00
2018-07-10T10:52:06.716Z,16048.00
2018-07-10T10:53:06.746Z,16940.00
2018-07-10T10:54:06.770Z,16484.00
2018-07-10T10:55:06.796Z,15836.00
2018-07-10T10:56:06.823Z,18048.00
2018-07-10T10:57:06.845Z,18976.00
2018-07-10T10:58:06.876Z,16656.00
2018-07-10T10:59:06.904Z,15076.00
2018-07-10T11:00:06.933Z,14004.00
2018-07-10T11:01:06.958Z,14100.00
2018-07-10T11:02:06.987Z,14584.00
2018-07-10T11:03:07.014Z,13452.00
2018-07-10T11:04:07.034Z,11744.00
2018-07-10T11:05:07.066Z,11132.00
2018-07-10T11:06:07.086Z,12276.00
2018-07-10T11:07:07.113Z,23200.00
2018-07-10T11:08:07.146Z,29440.00
2018-07-10T11:09:07.170Z,42144.00
2018-07-10T11:10:07.197Z,45024.00
2018-07-10T11:11:07.225Z,22048.00
2018-07-10T11:12:07.250Z,21312.00
2018-07-10T11:13:07.368Z,21440.00
2018-07-10T11:14:07.305Z,20192.00
2018-07-10T11:15:07.328Z,17728.00
2018-07-10T11:16:07.362Z,15196.00
2018-07-10T11:17:07.385Z,13976.00
2018-07-10T11:18:07.412Z,13164.00
2018-07-10T11:19:07.446Z,12560.00
2018-07-10T11:20:07.476Z,12048.00
2018-07-10T11:21:07.502Z,12836.00
2018-07-10T11:22:07.531Z,15148.00
2018-07-10T11:23:07.605Z,18176.00
2018-07-10T11:24:07.587Z,19872.00
2018-07-10T11:25:07.607Z,22144.00
2018-07-10T11:26:07.642Z,23808.00
2018-07-10T11:27:07.670Z,23904.00
2018-07-10T11:28:07.695Z,24320.00
2018-07-10T11:29:07.721Z,23872.00
2018-07-10T11:30:07.745Z,62016.00
2018-07-10T11:31:07.774Z,27328.00
2018-07-10T11:32:07.801Z,25568.00
2018-07-10T11:33:07.834Z,29536.00
2018-07-10T11:34:07.858Z,37632.00
2018-07-10T11:35:07.891Z,46176.00
2018-07-10T11:36:07.913Z,40288.00
2018-07-10T11:37:07.943Z,42528.00
2018-07-10T11:38:07.972Z,31744.00
2018-07-10T11:39:08.042Z,30976.00
2018-07-10T11:40:08.027Z,65184.00
2018-07-10T11:41:08.066Z,61888.00
2018-07-10T11:42:08.087Z,43072.00
2018-07-10T11:43:08.123Z,26624.00
2018-07-10T11:44:08.154Z,37536.00
2018-07-10T11:45:08.182Z,40384.00
2018-07-10T11:46:08.213Z,70336.00
2018-07-10T11:47:08.235Z,32576.00
2018-07-10T11:48:08.267Z,26080.00
2018-07-10T11:49:08.297Z,28704.00
2018-07-10T11:50:08.324Z,27552.00
2018-07-10T11:51:08.362Z,53440.00
2018-07-10T11:52:08.391Z,33344.00
2018-07-10T11:53:08.421Z,28480.00
2018-07-10T11:54:08.452Z,33504.00
2018-07-10T11:55:08.482Z,61696.00
2018-07-10T11:56:08.514Z,63968.00
2018-07-10T11:57:08.544Z,63680.00
2018-07-10T11:58:08.576Z,65312.00
2018-07-10T11:59:08.607Z,47040.00
2018-07-10T12:00:08.641Z,84672.00
2018-07-10T12:01:08.667Z,34816.00
2018-07-10T12:02:08.700Z,47680.00
2018-07-10T12:03:08.730Z,43552.00
2018-07-10T12:04:08.770Z,48064.00
2018-07-10T12:05:08.795Z,36416.00
2018-07-10T12:06:08.828Z,34944.00
2018-07-10T12:07:08.868Z,40416.00
2018-07-10T12:08:08.894Z,27008.00
2018-07-10T12:09:08.931Z,25632.00
2018-07-10T12:10:08.969Z,25440.00
2018-07-10T12:11:08.993Z,36480.00
2018-07-10T12:12:09.023Z,78560.00
2018-07-10T12:13:09.054Z,32032.00
2018-07-10T12:14:09.091Z,26784.00
2018-07-10T12:15:09.120Z,24928.00
2018-07-10T12:16:09.154Z,25024.00
2018-07-10T12:17:09.184Z,23648.00
2018-07-10T12:18:09.215Z,20352.00